sensor_id;sensor_type;location;lat;lon;timestamp;pressure;altitude;pressure_sealevel;temperature;humidity
8039;BME280;4062;49.844;8.120;2022-08-19T00:00:46;98949.22;;;21.01;57.02
8039;BME280;4062;49.844;8.120;2022-08-19T00:02:47;98951.91;;;21.01;56.67
8039;BME280;4062;49.844;8.120;2022-08-19T00:04:48;98947.41;;;21.02;56.83
8039;BME280;4062;49.844;8.120;2022-08-19T00:06:53;98959.97;;;21.01;56.83
8039;BME280;4062;49.844;8.120;2022-08-19T00:08:55;98953.75;;;21.01;56.52
8039;BME280;4062;49.844;8.120;2022-08-19T00:10:56;98953.75;;;21.01;57.08
8039;BME280;4062;49.844;8.120;2022-08-19T00:12:57;98955.56;;;21.00;56.93
8039;BME280;4062;49.844;8.120;2022-08-19T00:14:58;98960.84;;;21.02;57.07
8039;BME280;4062;49.844;8.120;2022-08-19T00:16:59;98951.06;;;21.01;56.69
8039;BME280;4062;49.844;8.120;2022-08-19T00:19:00;98952.03;;;21.00;56.95
8039;BME280;4062;49.844;8.120;2022-08-19T00:21:01;98956.44;;;21.01;56.99
8039;BME280;4062;49.844;8.120;2022-08-19T00:23:02;98956.44;;;21.01;57.17
8039;BME280;4062;49.844;8.120;2022-08-19T00:25:07;98956.44;;;21.01;56.80
8039;BME280;4062;49.844;8.120;2022-08-19T00:27:08;98953.75;;;21.01;56.74
8039;BME280;4062;49.844;8.120;2022-08-19T00:29:11;98951.06;;;21.01;56.90
8039;BME280;4062;49.844;8.120;2022-08-19T00:31:12;98949.22;;;21.01;56.84
8039;BME280;4062;49.844;8.120;2022-08-19T00:33:13;98943.00;;;21.01;56.71
8039;BME280;4062;49.844;8.120;2022-08-19T00:35:14;98944.81;;;21.00;57.09
8039;BME280;4062;49.844;8.120;2022-08-19T00:37:14;98944.81;;;21.00;56.79
8039;BME280;4062;49.844;8.120;2022-08-19T00:39:16;98948.38;;;21.01;56.96
8039;BME280;4062;49.844;8.120;2022-08-19T00:41:20;98944.81;;;21.00;56.60
8039;BME280;4062;49.844;8.120;2022-08-19T00:43:24;98946.66;;;21.00;56.89
8039;BME280;4062;49.844;8.120;2022-08-19T00:45:28;98951.91;;;21.01;57.01
8039;BME280;4062;49.844;8.120;2022-08-19T00:47:32;98949.34;;;21.00;56.95
8039;BME280;4062;49.844;8.120;2022-08-19T00:49:41;98937.72;;;20.99;57.03
8039;BME280;4062;49.844;8.120;2022-08-19T00:51:48;98941.28;;;21.00;56.83
8039;BME280;4062;49.844;8.120;2022-08-19T00:53:50;98935.91;;;21.00;56.64
8039;BME280;4062;49.844;8.120;2022-08-19T00:55:54;98931.38;;;21.00;56.69
8039;BME280;4062;49.844;8.120;2022-08-19T00:58:04;98926.00;;;21.00;56.68
8039;BME280;4062;49.844;8.120;2022-08-19T01:00:14;98921.63;;;20.99;56.62
8039;BME280;4062;49.844;8.120;2022-08-19T01:02:17;98917.13;;;21.00;56.94
8039;BME280;4062;49.844;8.120;2022-08-19T01:04:17;98913.56;;;20.99;56.90
8039;BME280;4062;49.844;8.120;2022-08-19T01:06:18;98913.47;;;21.01;56.96
8039;BME280;4062;49.844;8.120;2022-08-19T01:08:20;98909.91;;;21.00;57.02
8039;BME280;4062;49.844;8.120;2022-08-19T01:10:25;98912.72;;;20.99;56.53
8039;BME280;4062;49.844;8.120;2022-08-19T01:12:27;98914.44;;;21.00;56.82
8039;BME280;4062;49.844;8.120;2022-08-19T01:14:28;98913.56;;;20.99;56.70
8039;BME280;4062;49.844;8.120;2022-08-19T01:16:30;98914.44;;;21.00;56.90
8039;BME280;4062;49.844;8.120;2022-08-19T01:18:38;98903.69;;;21.00;56.62
8039;BME280;4062;49.844;8.120;2022-08-19T01:20:41;98910.88;;;20.99;56.98
8039;BME280;4062;49.844;8.120;2022-08-19T01:22:52;98909.06;;;21.00;56.92
8039;BME280;4062;49.844;8.120;2022-08-19T01:24:53;98901.00;;;21.00;56.76
8039;BME280;4062;49.844;8.120;2022-08-19T01:26:53;98907.22;;;21.00;56.74
8039;BME280;4062;49.844;8.120;2022-08-19T01:28:58;98892.06;;;20.99;56.75
8039;BME280;4062;49.844;8.120;2022-08-19T01:30:59;98904.66;;;20.99;56.75
8039;BME280;4062;49.844;8.120;2022-08-19T01:33:01;98902.81;;;20.99;56.91
8039;BME280;4062;49.844;8.120;2022-08-19T01:35:04;98893.91;;;20.99;56.89
8039;BME280;4062;49.844;8.120;2022-08-19T01:37:09;98903.69;;;21.00;56.83
8039;BME280;4062;49.844;8.120;2022-08-19T01:39:16;98900.13;;;20.99;56.69
8039;BME280;4062;49.844;8.120;2022-08-19T01:41:18;98918.94;;;20.99;56.79
8039;BME280;4062;49.844;8.120;2022-08-19T01:43:19;98926.97;;;20.99;56.85
8039;BME280;4062;49.844;8.120;2022-08-19T01:45:23;98936.75;;;21.00;56.96
8039;BME280;4062;49.844;8.120;2022-08-19T01:47:25;98935.03;;;20.99;56.83
8039;BME280;4062;49.844;8.120;2022-08-19T01:49:26;98932.34;;;20.99;57.00
8039;BME280;4062;49.844;8.120;2022-08-19T01:51:27;98921.63;;;20.99;56.95
8039;BME280;4062;49.844;8.120;2022-08-19T01:53:28;98915.28;;;21.00;56.94
8039;BME280;4062;49.844;8.120;2022-08-19T01:55:29;98913.56;;;20.99;56.63
8039;BME280;4062;49.844;8.120;2022-08-19T01:57:30;98907.34;;;20.99;57.02
8039;BME280;4062;49.844;8.120;2022-08-19T01:59:32;98904.66;;;20.99;56.59
8039;BME280;4062;49.844;8.120;2022-08-19T02:01:33;98910.03;;;20.99;56.66
8039;BME280;4062;49.844;8.120;2022-08-19T02:03:35;98923.47;;;20.99;57.01
8039;BME280;4062;49.844;8.120;2022-08-19T02:05:36;98920.78;;;20.99;56.75
8039;BME280;4062;49.844;8.120;2022-08-19T02:07:38;98925.19;;;21.00;56.72
8039;BME280;4062;49.844;8.120;2022-08-19T02:09:39;98919.91;;;20.98;56.97
8039;BME280;4062;49.844;8.120;2022-08-19T02:11:41;98912.72;;;20.99;56.60
8039;BME280;4062;49.844;8.120;2022-08-19T02:13:42;98917.22;;;20.98;57.00
8039;BME280;4062;49.844;8.120;2022-08-19T02:15:43;98923.47;;;20.99;56.79
8039;BME280;4062;49.844;8.120;2022-08-19T02:17:43;98927.94;;;20.98;57.04
8039;BME280;4062;49.844;8.120;2022-08-19T02:19:44;98924.44;;;20.98;56.96
8039;BME280;4062;49.844;8.120;2022-08-19T02:21:45;98923.47;;;20.99;56.84
8039;BME280;4062;49.844;8.120;2022-08-19T02:23:46;98920.78;;;20.99;57.05
8039;BME280;4062;49.844;8.120;2022-08-19T02:25:48;98923.47;;;20.99;56.94
8039;BME280;4062;49.844;8.120;2022-08-19T02:27:49;98918.09;;;20.99;56.84
8039;BME280;4062;49.844;8.120;2022-08-19T02:29:51;98920.78;;;20.99;56.82
8039;BME280;4062;49.844;8.120;2022-08-19T02:31:52;98923.47;;;20.99;56.98
8039;BME280;4062;49.844;8.120;2022-08-19T02:33:53;98921.75;;;20.98;56.46
8039;BME280;4062;49.844;8.120;2022-08-19T02:35:54;98932.47;;;20.98;56.70
8039;BME280;4062;49.844;8.120;2022-08-19T02:37:54;98936.00;;;20.98;56.95
8039;BME280;4062;49.844;8.120;2022-08-19T02:40:13;98938.69;;;20.98;56.84
8039;BME280;4062;49.844;8.120;2022-08-19T02:42:15;98943.22;;;20.98;56.70
8039;BME280;4062;49.844;8.120;2022-08-19T02:44:16;98935.16;;;20.98;56.86
8039;BME280;4062;49.844;8.120;2022-08-19T02:46:26;98935.16;;;20.98;56.77
8039;BME280;4062;49.844;8.120;2022-08-19T02:48:27;98929.78;;;20.98;56.85
8039;BME280;4062;49.844;8.120;2022-08-19T02:50:28;98936.00;;;20.98;56.95
8039;BME280;4062;49.844;8.120;2022-08-19T02:52:29;98937.84;;;20.98;56.97
8039;BME280;4062;49.844;8.120;2022-08-19T02:54:30;98946.75;;;20.98;56.53
8039;BME280;4062;49.844;8.120;2022-08-19T02:56:31;98945.91;;;20.98;56.93
8039;BME280;4062;49.844;8.120;2022-08-19T02:58:31;98942.38;;;20.97;57.15
8039;BME280;4062;49.844;8.120;2022-08-19T03:00:32;98937.84;;;20.98;56.91
8039;BME280;4062;49.844;8.120;2022-08-19T03:02:33;98937.00;;;20.97;57.14
8039;BME280;4062;49.844;8.120;2022-08-19T03:04:34;98936.13;;;20.97;56.75
8039;BME280;4062;49.844;8.120;2022-08-19T03:06:40;98932.47;;;20.98;56.86
8039;BME280;4062;49.844;8.120;2022-08-19T03:08:44;98934.31;;;20.97;56.71
8039;BME280;4062;49.844;8.120;2022-08-19T03:10:47;98920.03;;;20.97;56.85
8039;BME280;4062;49.844;8.120;2022-08-19T03:12:48;98926.25;;;20.97;57.12
8039;BME280;4062;49.844;8.120;2022-08-19T03:14:48;98928.06;;;20.97;56.91
8039;BME280;4062;49.844;8.120;2022-08-19T03:16:51;98922.72;;;20.97;56.72
8039;BME280;4062;49.844;8.120;2022-08-19T03:18:53;98940.53;;;20.98;57.11
8039;BME280;4062;49.844;8.120;2022-08-19T03:20:56;98931.63;;;20.97;56.99
8039;BME280;4062;49.844;8.120;2022-08-19T03:22:56;98931.63;;;20.97;56.65
8039;BME280;4062;49.844;8.120;2022-08-19T03:24:58;98935.16;;;20.98;56.70
8039;BME280;4062;49.844;8.120;2022-08-19T03:26:59;98935.28;;;20.96;56.77
8039;BME280;4062;49.844;8.120;2022-08-19T03:29:04;98942.38;;;20.97;57.10
8039;BME280;4062;49.844;8.120;2022-08-19T03:31:13;98942.38;;;20.97;56.95
8039;BME280;4062;49.844;8.120;2022-08-19T03:33:14;98938.81;;;20.97;56.81
8039;BME280;4062;49.844;8.120;2022-08-19T03:35:15;98938.81;;;20.97;56.99
8039;BME280;4062;49.844;8.120;2022-08-19T03:37:15;98946.88;;;20.97;56.90
8039;BME280;4062;49.844;8.120;2022-08-19T03:39:17;98934.31;;;20.97;56.95
8039;BME280;4062;49.844;8.120;2022-08-19T03:41:25;98940.53;;;20.98;56.92
8039;BME280;4062;49.844;8.120;2022-08-19T03:43:26;98935.28;;;20.96;56.92
8039;BME280;4062;49.844;8.120;2022-08-19T03:45:27;98941.50;;;20.97;56.97
8039;BME280;4062;49.844;8.120;2022-08-19T03:47:27;98941.50;;;20.97;56.71
8039;BME280;4062;49.844;8.120;2022-08-19T03:49:31;98941.50;;;20.97;57.10
8039;BME280;4062;49.844;8.120;2022-08-19T03:51:38;98950.44;;;20.97;56.87
8039;BME280;4062;49.844;8.120;2022-08-19T03:53:38;98952.25;;;20.97;56.50
8039;BME280;4062;49.844;8.120;2022-08-19T03:55:41;98954.94;;;20.97;56.61
8039;BME280;4062;49.844;8.120;2022-08-19T03:57:41;98955.81;;;20.97;56.95
8039;BME280;4062;49.844;8.120;2022-08-19T03:59:42;98951.41;;;20.96;56.87
8039;BME280;4062;49.844;8.120;2022-08-19T04:01:44;98951.41;;;20.96;56.56
8039;BME280;4062;49.844;8.120;2022-08-19T04:03:45;98954.94;;;20.97;56.87
8039;BME280;4062;49.844;8.120;2022-08-19T04:05:47;98962.16;;;20.96;56.62
8039;BME280;4062;49.844;8.120;2022-08-19T04:07:47;98963.00;;;20.97;57.06
8039;BME280;4062;49.844;8.120;2022-08-19T04:09:48;98962.16;;;20.96;56.87
8039;BME280;4062;49.844;8.120;2022-08-19T04:11:53;98963.97;;;20.96;56.68
8039;BME280;4062;49.844;8.120;2022-08-19T04:13:55;98958.59;;;20.96;56.68
8039;BME280;4062;49.844;8.120;2022-08-19T04:15:56;98963.97;;;20.96;57.03
8039;BME280;4062;49.844;8.120;2022-08-19T04:17:57;98965.69;;;20.97;56.67
8039;BME280;4062;49.844;8.120;2022-08-19T04:19:58;98963.97;;;20.96;56.69
8039;BME280;4062;49.844;8.120;2022-08-19T04:21:58;98963.00;;;20.97;56.86
8039;BME280;4062;49.844;8.120;2022-08-19T04:23:59;98961.28;;;20.96;56.84
8039;BME280;4062;49.844;8.120;2022-08-19T04:26:00;98963.00;;;20.97;56.68
8039;BME280;4062;49.844;8.120;2022-08-19T04:28:01;98962.16;;;20.96;56.72
8039;BME280;4062;49.844;8.120;2022-08-19T04:30:02;98965.81;;;20.95;56.74
8039;BME280;4062;49.844;8.120;2022-08-19T04:32:03;98955.91;;;20.96;57.02
8039;BME280;4062;49.844;8.120;2022-08-19T04:34:07;98959.47;;;20.96;56.86
8039;BME280;4062;49.844;8.120;2022-08-19T04:36:17;98957.75;;;20.95;56.65
8039;BME280;4062;49.844;8.120;2022-08-19T04:38:21;98952.38;;;20.95;56.79
8039;BME280;4062;49.844;8.120;2022-08-19T04:40:25;98963.97;;;20.96;56.78
8039;BME280;4062;49.844;8.120;2022-08-19T04:42:44;98958.59;;;20.96;56.71
8039;BME280;4062;49.844;8.120;2022-08-19T04:44:45;98958.59;;;20.96;56.75
8039;BME280;4062;49.844;8.120;2022-08-19T04:46:47;98941.63;;;20.95;56.79
8039;BME280;4062;49.844;8.120;2022-08-19T04:48:48;98949.69;;;20.95;56.57
8039;BME280;4062;49.844;8.120;2022-08-19T04:50:49;98951.50;;;20.95;56.62
8039;BME280;4062;49.844;8.120;2022-08-19T04:52:51;98955.91;;;20.96;56.80
8039;BME280;4062;49.844;8.120;2022-08-19T04:54:52;98953.22;;;20.96;56.75
8039;BME280;4062;49.844;8.120;2022-08-19T04:56:54;98957.75;;;20.95;56.99
8039;BME280;4062;49.844;8.120;2022-08-19T04:58:56;98962.25;;;20.95;56.75
8039;BME280;4062;49.844;8.120;2022-08-19T05:00:57;98968.47;;;20.95;56.56
8039;BME280;4062;49.844;8.120;2022-08-19T05:03:00;98967.53;;;20.96;56.63
8039;BME280;4062;49.844;8.120;2022-08-19T05:05:01;98966.66;;;20.96;57.13
8039;BME280;4062;49.844;8.120;2022-08-19T05:07:03;98968.47;;;20.95;56.88
8039;BME280;4062;49.844;8.120;2022-08-19T05:09:04;98967.59;;;20.95;56.73
8039;BME280;4062;49.844;8.120;2022-08-19T05:11:21;98968.47;;;20.95;56.94
8039;BME280;4062;49.844;8.120;2022-08-19T05:13:22;98970.28;;;20.95;56.80
8039;BME280;4062;49.844;8.120;2022-08-19T05:15:23;98969.44;;;20.94;56.89
8039;BME280;4062;49.844;8.120;2022-08-19T05:17:27;98982.75;;;20.96;56.71
8039;BME280;4062;49.844;8.120;2022-08-19T05:19:28;98981.91;;;20.95;56.51
8039;BME280;4062;49.844;8.120;2022-08-19T05:21:47;98981.03;;;20.95;56.60
8039;BME280;4062;49.844;8.120;2022-08-19T05:24:07;98977.50;;;20.94;56.94
8039;BME280;4062;49.844;8.120;2022-08-19T05:26:09;98981.03;;;20.95;56.80
8039;BME280;4062;49.844;8.120;2022-08-19T05:28:11;98980.19;;;20.94;56.64
8039;BME280;4062;49.844;8.120;2022-08-19T05:30:12;98975.66;;;20.95;56.64
8039;BME280;4062;49.844;8.120;2022-08-19T05:32:13;98973.94;;;20.93;56.48
8039;BME280;4062;49.844;8.120;2022-08-19T05:34:14;98985.56;;;20.94;56.68
8039;BME280;4062;49.844;8.120;2022-08-19T05:36:15;98980.19;;;20.94;56.95
8039;BME280;4062;49.844;8.120;2022-08-19T05:38:19;98978.34;;;20.95;57.10
8039;BME280;4062;49.844;8.120;2022-08-19T05:40:20;98981.03;;;20.95;56.52
8039;BME280;4062;49.844;8.120;2022-08-19T05:42:21;98989.97;;;20.95;56.86
8039;BME280;4062;49.844;8.120;2022-08-19T05:44:25;98989.97;;;20.95;56.82
8039;BME280;4062;49.844;8.120;2022-08-19T05:46:27;98993.63;;;20.94;56.88
8039;BME280;4062;49.844;8.120;2022-08-19T05:48:27;98983.72;;;20.95;56.63
8039;BME280;4062;49.844;8.120;2022-08-19T05:50:28;98984.59;;;20.95;56.94
8039;BME280;4062;49.844;8.120;2022-08-19T05:52:30;98973.94;;;20.93;56.82
8039;BME280;4062;49.844;8.120;2022-08-19T05:54:30;98984.69;;;20.93;56.66
8039;BME280;4062;49.844;8.120;2022-08-19T05:56:31;98982.88;;;20.94;56.93
8039;BME280;4062;49.844;8.120;2022-08-19T05:58:34;98996.19;;;20.96;56.80
8039;BME280;4062;49.844;8.120;2022-08-19T06:00:36;99008.75;;;20.95;56.63
8039;BME280;4062;49.844;8.120;2022-08-19T06:02:38;99009.72;;;20.94;56.70
8039;BME280;4062;49.844;8.120;2022-08-19T06:04:39;99008.84;;;20.93;56.71
8039;BME280;4062;49.844;8.120;2022-08-19T06:06:42;99010.56;;;20.95;56.67
8039;BME280;4062;49.844;8.120;2022-08-19T06:08:43;99007.03;;;20.94;56.56
8039;BME280;4062;49.844;8.120;2022-08-19T06:10:51;99011.53;;;20.93;56.89
8039;BME280;4062;49.844;8.120;2022-08-19T06:12:52;99020.34;;;20.96;56.57
8039;BME280;4062;49.844;8.120;2022-08-19T06:14:53;99020.47;;;20.94;56.70
8039;BME280;4062;49.844;8.120;2022-08-19T06:16:55;99026.69;;;20.95;56.62
8039;BME280;4062;49.844;8.120;2022-08-19T06:19:00;99037.44;;;20.95;56.93
8039;BME280;4062;49.844;8.120;2022-08-19T06:21:01;99034.75;;;20.95;56.72
8039;BME280;4062;49.844;8.120;2022-08-19T06:23:04;99040.13;;;20.95;56.86
8039;BME280;4062;49.844;8.120;2022-08-19T06:25:05;99043.69;;;20.95;56.60
8039;BME280;4062;49.844;8.120;2022-08-19T06:27:06;99045.50;;;20.95;57.06
8039;BME280;4062;49.844;8.120;2022-08-19T06:29:09;99047.31;;;20.94;56.74
8039;BME280;4062;49.844;8.120;2022-08-19T06:31:10;99050.00;;;20.94;56.87
8039;BME280;4062;49.844;8.120;2022-08-19T06:33:14;99055.38;;;20.94;56.83
8039;BME280;4062;49.844;8.120;2022-08-19T06:35:15;99053.53;;;20.95;56.94
8039;BME280;4062;49.844;8.120;2022-08-19T06:37:15;99054.50;;;20.93;56.74
8039;BME280;4062;49.844;8.120;2022-08-19T06:39:21;99059.88;;;20.93;56.77
8039;BME280;4062;49.844;8.120;2022-08-19T06:41:23;99066.13;;;20.94;56.97
8039;BME280;4062;49.844;8.120;2022-08-19T06:43:24;99056.22;;;20.95;56.98
8039;BME280;4062;49.844;8.120;2022-08-19T06:45:25;99061.59;;;20.95;56.78
8039;BME280;4062;49.844;8.120;2022-08-19T06:47:26;99059.88;;;20.93;56.81
8039;BME280;4062;49.844;8.120;2022-08-19T06:49:27;99055.38;;;20.94;56.66
8039;BME280;4062;49.844;8.120;2022-08-19T06:51:31;99051.81;;;20.93;56.86
8039;BME280;4062;49.844;8.120;2022-08-19T06:53:33;99059.88;;;20.93;56.85
8039;BME280;4062;49.844;8.120;2022-08-19T06:55:34;99060.63;;;20.96;56.79
8039;BME280;4062;49.844;8.120;2022-08-19T06:57:35;99070.53;;;20.95;56.78
8039;BME280;4062;49.844;8.120;2022-08-19T06:59:36;99062.47;;;20.95;56.66
8039;BME280;4062;49.844;8.120;2022-08-19T07:01:44;99060.75;;;20.94;56.58
8039;BME280;4062;49.844;8.120;2022-08-19T07:03:47;99055.38;;;20.94;56.64
8039;BME280;4062;49.844;8.120;2022-08-19T07:05:47;99054.50;;;20.93;56.64
8039;BME280;4062;49.844;8.120;2022-08-19T07:07:48;99060.75;;;20.94;57.03
8039;BME280;4062;49.844;8.120;2022-08-19T07:09:51;99057.19;;;20.93;56.92
8039;BME280;4062;49.844;8.120;2022-08-19T07:11:54;99060.75;;;20.94;56.76
8039;BME280;4062;49.844;8.120;2022-08-19T07:13:55;99061.59;;;20.95;57.06
8039;BME280;4062;49.844;8.120;2022-08-19T07:15:56;99064.28;;;20.95;57.03
8039;BME280;4062;49.844;8.120;2022-08-19T07:17:57;99061.59;;;20.95;56.95
8039;BME280;4062;49.844;8.120;2022-08-19T07:19:58;99057.19;;;20.93;56.73
8039;BME280;4062;49.844;8.120;2022-08-19T07:22:02;99061.59;;;20.95;57.01
8039;BME280;4062;49.844;8.120;2022-08-19T07:24:04;99052.69;;;20.94;57.03
8039;BME280;4062;49.844;8.120;2022-08-19T07:26:21;99057.94;;;20.96;56.92
8039;BME280;4062;49.844;8.120;2022-08-19T07:28:22;99054.41;;;20.95;56.81
8039;BME280;4062;49.844;8.120;2022-08-19T07:30:23;99047.22;;;20.96;56.87
8039;BME280;4062;49.844;8.120;2022-08-19T07:32:24;99051.63;;;20.97;56.84
8039;BME280;4062;49.844;8.120;2022-08-19T07:34:30;99051.63;;;20.97;56.81
8039;BME280;4062;49.844;8.120;2022-08-19T07:36:38;99049.81;;;20.97;56.60
8039;BME280;4062;49.844;8.120;2022-08-19T07:38:42;99052.50;;;20.97;56.93
8039;BME280;4062;49.844;8.120;2022-08-19T07:40:44;99056.84;;;20.98;56.98
8039;BME280;4062;49.844;8.120;2022-08-19T07:42:46;99064.06;;;20.98;56.73
8039;BME280;4062;49.844;8.120;2022-08-19T07:44:47;99060.41;;;20.99;56.89
8039;BME280;4062;49.844;8.120;2022-08-19T07:46:53;99052.38;;;20.99;56.66
8039;BME280;4062;49.844;8.120;2022-08-19T07:48:54;99063.09;;;20.99;56.65
8039;BME280;4062;49.844;8.120;2022-08-19T07:50:58;99059.44;;;21.00;56.59
8039;BME280;4062;49.844;8.120;2022-08-19T07:53:02;99062.13;;;21.00;56.94
8039;BME280;4062;49.844;8.120;2022-08-19T07:55:05;99055.81;;;21.01;56.59
8039;BME280;4062;49.844;8.120;2022-08-19T07:57:06;99056.66;;;21.01;56.72
8039;BME280;4062;49.844;8.120;2022-08-19T07:59:07;99058.38;;;21.02;56.68
8039;BME280;4062;49.844;8.120;2022-08-19T08:01:14;99063.75;;;21.02;56.51
8039;BME280;4062;49.844;8.120;2022-08-19T08:03:20;99061.91;;;21.03;56.66
8039;BME280;4062;49.844;8.120;2022-08-19T08:05:21;99063.63;;;21.04;56.64
8039;BME280;4062;49.844;8.120;2022-08-19T08:07:40;99066.31;;;21.04;56.54
8039;BME280;4062;49.844;8.120;2022-08-19T08:09:59;99062.66;;;21.05;56.61
8039;BME280;4062;49.844;8.120;2022-08-19T08:12:12;99070.81;;;21.03;56.91
8039;BME280;4062;49.844;8.120;2022-08-19T08:14:19;99079.72;;;21.04;56.82
8039;BME280;4062;49.844;8.120;2022-08-19T08:16:21;99076.19;;;21.03;56.67
8039;BME280;4062;49.844;8.120;2022-08-19T08:18:26;99074.34;;;21.04;56.69
8039;BME280;4062;49.844;8.120;2022-08-19T08:20:26;99074.34;;;21.04;56.68
8039;BME280;4062;49.844;8.120;2022-08-19T08:22:27;99078.88;;;21.03;56.71
8039;BME280;4062;49.844;8.120;2022-08-19T08:24:47;99078.75;;;21.05;56.65
8039;BME280;4062;49.844;8.120;2022-08-19T08:26:47;99077.91;;;21.04;56.61
8039;BME280;4062;49.844;8.120;2022-08-19T08:28:48;99077.91;;;21.04;56.75
8039;BME280;4062;49.844;8.120;2022-08-19T08:30:50;99072.56;;;21.04;56.80
8039;BME280;4062;49.844;8.120;2022-08-19T08:32:51;99076.19;;;21.03;56.63
8039;BME280;4062;49.844;8.120;2022-08-19T08:34:52;99078.00;;;21.03;56.74
8039;BME280;4062;49.844;8.120;2022-08-19T08:36:54;99086.06;;;21.03;56.66
8039;BME280;4062;49.844;8.120;2022-08-19T08:38:54;99079.72;;;21.04;56.48
8039;BME280;4062;49.844;8.120;2022-08-19T08:41:28;99089.63;;;21.03;56.70
8039;BME280;4062;49.844;8.120;2022-08-19T08:43:40;99087.78;;;21.04;56.66
8039;BME280;4062;49.844;8.120;2022-08-19T08:46:06;99087.78;;;21.04;56.39
8039;BME280;4062;49.844;8.120;2022-08-19T08:48:24;99082.41;;;21.04;56.44
8039;BME280;4062;49.844;8.120;2022-08-19T08:50:40;99093.16;;;21.04;56.62
8039;BME280;4062;49.844;8.120;2022-08-19T08:52:49;99091.34;;;21.04;56.60
8039;BME280;4062;49.844;8.120;2022-08-19T08:54:55;99100.25;;;21.05;56.56
8039;BME280;4062;49.844;8.120;2022-08-19T08:56:57;99089.50;;;21.05;56.45
8039;BME280;4062;49.844;8.120;2022-08-19T08:59:30;99092.09;;;21.06;56.59
8039;BME280;4062;49.844;8.120;2022-08-19T09:01:35;99097.56;;;21.05;56.76
8039;BME280;4062;49.844;8.120;2022-08-19T09:03:39;99093.06;;;21.05;56.36
8039;BME280;4062;49.844;8.120;2022-08-19T09:06:14;99093.91;;;21.06;56.61
8039;BME280;4062;49.844;8.120;2022-08-19T09:10:52;99106.38;;;21.07;56.70
8039;BME280;4062;49.844;8.120;2022-08-19T09:15:39;99106.38;;;21.07;56.31
8039;BME280;4062;49.844;8.120;2022-08-19T09:17:40;99101.84;;;21.07;56.28
8039;BME280;4062;49.844;8.120;2022-08-19T09:19:56;99106.25;;;21.08;56.53
8039;BME280;4062;49.844;8.120;2022-08-19T09:21:57;99097.34;;;21.08;56.59
8039;BME280;4062;49.844;8.120;2022-08-19T09:24:02;99086.63;;;21.08;56.41
8039;BME280;4062;49.844;8.120;2022-08-19T09:26:13;99088.31;;;21.09;56.69
8039;BME280;4062;49.844;8.120;2022-08-19T09:28:14;99085.66;;;21.09;56.73
8039;BME280;4062;49.844;8.120;2022-08-19T09:30:25;99085.66;;;21.09;56.82
8039;BME280;4062;49.844;8.120;2022-08-19T09:32:27;99082.97;;;21.09;56.71
8039;BME280;4062;49.844;8.120;2022-08-19T09:34:27;99081.25;;;21.08;56.59
8039;BME280;4062;49.844;8.120;2022-08-19T09:36:30;99072.31;;;21.07;56.35
8039;BME280;4062;49.844;8.120;2022-08-19T09:38:34;99076.00;;;21.06;56.67
8039;BME280;4062;49.844;8.120;2022-08-19T09:40:35;99078.56;;;21.08;56.59
8039;BME280;4062;49.844;8.120;2022-08-19T09:42:36;99070.63;;;21.06;56.71
8039;BME280;4062;49.844;8.120;2022-08-19T09:44:41;99071.47;;;21.07;56.53
8039;BME280;4062;49.844;8.120;2022-08-19T09:46:42;99064.25;;;21.07;56.54
8039;BME280;4062;49.844;8.120;2022-08-19T09:48:42;99076.72;;;21.08;56.59
8039;BME280;4062;49.844;8.120;2022-08-19T09:50:44;99068.78;;;21.07;56.35
8039;BME280;4062;49.844;8.120;2022-08-19T09:52:46;99063.28;;;21.08;56.48
8039;BME280;4062;49.844;8.120;2022-08-19T09:54:46;99065.13;;;21.08;56.57
8039;BME280;4062;49.844;8.120;2022-08-19T09:56:47;99062.44;;;21.08;56.58
8039;BME280;4062;49.844;8.120;2022-08-19T09:58:49;99059.75;;;21.08;56.36
8039;BME280;4062;49.844;8.120;2022-08-19T10:00:49;99053.50;;;21.07;56.35
8039;BME280;4062;49.844;8.120;2022-08-19T10:02:50;99056.09;;;21.09;56.76
8039;BME280;4062;49.844;8.120;2022-08-19T10:04:51;99055.22;;;21.08;56.67
8039;BME280;4062;49.844;8.120;2022-08-19T10:07:11;99056.09;;;21.09;56.38
8039;BME280;4062;49.844;8.120;2022-08-19T10:09:11;99065.88;;;21.10;56.29
8039;BME280;4062;49.844;8.120;2022-08-19T10:11:13;99061.34;;;21.11;56.24
8039;BME280;4062;49.844;8.120;2022-08-19T10:13:19;99063.19;;;21.10;56.27
8039;BME280;4062;49.844;8.120;2022-08-19T10:15:25;99064.91;;;21.11;56.22
8039;BME280;4062;49.844;8.120;2022-08-19T10:17:26;99056.94;;;21.09;56.41
8039;BME280;4062;49.844;8.120;2022-08-19T10:19:27;99051.47;;;21.11;56.72
8039;BME280;4062;49.844;8.120;2022-08-19T10:21:32;99039.00;;;21.10;56.44
8039;BME280;4062;49.844;8.120;2022-08-19T10:23:33;99045.22;;;21.11;56.33
8039;BME280;4062;49.844;8.120;2022-08-19T10:25:33;99044.38;;;21.10;56.61
8039;BME280;4062;49.844;8.120;2022-08-19T10:27:35;99042.66;;;21.09;56.35
8039;BME280;4062;49.844;8.120;2022-08-19T10:29:36;99041.69;;;21.10;56.43
8039;BME280;4062;49.844;8.120;2022-08-19T10:31:37;99040.81;;;21.09;56.39
8039;BME280;4062;49.844;8.120;2022-08-19T10:33:39;99031.91;;;21.09;56.40
8039;BME280;4062;49.844;8.120;2022-08-19T10:35:40;99037.16;;;21.11;56.49
8039;BME280;4062;49.844;8.120;2022-08-19T10:37:40;99047.06;;;21.10;56.56
8039;BME280;4062;49.844;8.120;2022-08-19T10:39:41;99042.66;;;21.09;56.70
8039;BME280;4062;49.844;8.120;2022-08-19T10:44:58;99044.38;;;21.10;56.72
8039;BME280;4062;49.844;8.120;2022-08-19T10:46:59;99037.28;;;21.09;56.63
8039;BME280;4062;49.844;8.120;2022-08-19T10:49:01;99041.69;;;21.10;56.61
8039;BME280;4062;49.844;8.120;2022-08-19T10:51:03;99040.81;;;21.09;56.69
8039;BME280;4062;49.844;8.120;2022-08-19T10:53:22;99037.28;;;21.09;56.59
8039;BME280;4062;49.844;8.120;2022-08-19T10:55:25;99033.63;;;21.10;56.63
8039;BME280;4062;49.844;8.120;2022-08-19T10:57:45;99042.66;;;21.09;56.46
8039;BME280;4062;49.844;8.120;2022-08-19T10:59:45;99042.66;;;21.09;56.54
8039;BME280;4062;49.844;8.120;2022-08-19T11:01:48;99037.28;;;21.09;56.60
8039;BME280;4062;49.844;8.120;2022-08-19T11:03:49;99041.69;;;21.10;56.49
8039;BME280;4062;49.844;8.120;2022-08-19T11:06:08;99034.59;;;21.09;56.64
8039;BME280;4062;49.844;8.120;2022-08-19T11:08:09;99034.59;;;21.09;56.72
8039;BME280;4062;49.844;8.120;2022-08-19T11:10:14;99036.41;;;21.08;56.22
8039;BME280;4062;49.844;8.120;2022-08-19T11:12:14;99035.44;;;21.09;56.25
8039;BME280;4062;49.844;8.120;2022-08-19T11:14:17;99033.72;;;21.08;56.71
8039;BME280;4062;49.844;8.120;2022-08-19T11:16:26;99028.34;;;21.08;56.18
8039;BME280;4062;49.844;8.120;2022-08-19T11:18:27;99031.03;;;21.08;56.48
8039;BME280;4062;49.844;8.120;2022-08-19T11:20:28;99031.91;;;21.09;56.39